Weather - Helsinki Query any day in the database

Current weather  

Weather data for a selected day (2006-01-01 -2020-10-31)
Enter date:     <-     scroll days         ->
day curves
Low temperature°C -12.007:50
High temperature°C +2.013:50
Low wind chill°C -15.304:50
Average temperature°C -5.2 
High wind speed (10 min) m/s 3.023:50
Low pressurehPa 1037.001:20
High pressurehPa 1041.013:50
Low R.H% 4314:50
High R.H% 9208:20
Day weather data as a table
Date Time Temp
°C
Chill
°C
Pressure
hPA
Wind
m/s
Hum
%
Precip
mm
2011-03-16 23:50:00 -6.0  -10.7  1039.0 3.0 67 -
2011-03-16 23:20:00 -7.0  -11.9  1039.0 3.0 73 -
2011-03-16 22:50:00 -6.0  -10.7  1039.0 3.0 73 -
2011-03-16 22:20:00 -6.0  -10.7  1039.0 3.0 73 -
2011-03-16 21:50:00 -7.0  -11.9  1039.0 3.0 73 -
2011-03-16 21:20:00 -7.0  -10.6  1039.0 2.0 73 -
2011-03-16 20:50:00 -4.0  -5.3  1039.0 1.0 68 -
2011-03-16 20:20:00 -5.0  -6.4  1039.0 1.0 73 -
2011-03-16 19:50:00 -5.0  -6.4  1040.0 1.0 73 -
2011-03-16 19:20:00 -4.0  -8.3  1040.0 3.0 68 -
2011-03-16 18:50:00 -3.0  -7.1  1040.0 3.0 68 -
2011-03-16 18:20:00 0.0  -2.5  1040.0 2.0 54 -
2011-03-16 17:50:00 0.0  -0.8  1040.0 1.0 59 -
2011-03-16 17:20:00 0.0  -2.5  1040.0 2.0 59 -
2011-03-16 16:50:00 0.0  -3.5  1040.0 3.0 59 -
2011-03-16 16:20:00 1.0  -2.3  1040.0 3.0 55 -
2011-03-16 15:50:00 1.0  -1.3  1040.0 2.0 50 -
2011-03-16 15:20:00 1.0  0.3  1040.0 1.0 43 -
2011-03-16 14:50:00 1.0  0.3  1040.0 1.0 43 -
2011-03-16 13:50:00 2.0  -1.1  1041.0 3.0 47 -
2011-03-16 13:20:00 1.0  -1.3  1041.0 2.0 50 -
2011-03-16 12:50:00 0.0  -3.5  1041.0 3.0 54 -
2011-03-16 12:20:00 0.0  -0.8  1041.0 1.0 54 -
2011-03-16 11:50:00 0.0  -2.5  1041.0 2.0 54 -
2011-03-16 11:20:00 -1.0  -1.9  1041.0 1.0 63 -
2011-03-16 10:50:00 -2.0  -2.0  1041.0 0.0 68 -
2011-03-16 10:20:00 -1.0  -1.0  1041.0 0.0 68 -
2011-03-16 09:50:00 -5.0  -5.0  1041.0 0.0 79 -
2011-03-16 09:20:00 -6.0  -7.5  1041.0 1.0 79 -
2011-03-16 08:50:00 -8.0  -11.8  1041.0 2.0 85 -
2011-03-16 08:20:00 -10.0  -11.9  1040.0 1.0 92 -
2011-03-16 07:50:00 -12.0  -14.1  1040.0 1.0 92 -
2011-03-16 07:20:00 -12.0  -14.1  1040.0 1.0 92 -
2011-03-16 06:50:00 -12.0  -14.1  1040.0 1.0 85 -
2011-03-16 06:20:00 -12.0  -12.0  1039.0 0.0 85 -
2011-03-16 05:50:00 -12.0  -12.0  1039.0 0.0 92 -
2011-03-16 05:20:00 -11.0  -13.0  1039.0 1.0 92 -
2011-03-16 04:50:00 -11.0  -15.3  1039.0 2.0 92 -
2011-03-16 04:20:00 -11.0  -13.0  1039.0 1.0 92 -
2011-03-16 03:50:00 -10.0  -11.9  1038.0 1.0 85 -
2011-03-16 03:20:00 -11.0  -13.0  1038.0 1.0 92 -
2011-03-16 02:50:00 -10.0  -11.9  1038.0 1.0 92 -
2011-03-16 02:20:00 -8.0  -9.7  1038.0 1.0 85 -
2011-03-16 01:20:00 -8.0  -13.1  1037.0 3.0 85 -
2011-03-16 00:50:00 -7.0  -11.9  1037.0 3.0 79 -
2011-03-16 00:20:00 -7.0  -8.6  1037.0 1.0 79 -
Unit conversions: